Smith Valley, Nevada Weather observations

Data are for 10 minute period ending at time listed.
 Day   Time   Solar   Ave.   Ave.  Ave.  Vector  Max.   Baro.   Total    
  of    of     Rad.   Air    Rel.  Wind   Wind   Wind  Press.  Precip.   
Year   Day            Temp.  Hum.  Speed  Dir.   Gust                    
2016   (PST)  Kw/m2    F      %     mph   deg.    mph    mb.     in.     
-------------------------------------------------------------------------
 120   10:50   0.41   61.1    23    3.5   287    13.0   851.2    0.00 
 120   11:00   0.35   60.1    26    6.6   307    12.6   851.0    0.00 
 120   11:10   0.34   59.0    31    8.9   306    13.0   850.8    0.00 
 120   11:20   0.32   58.6    28    8.7   305    13.2   850.7    0.00 
 120   11:30   0.26   58.6    31    7.2   295    11.9   850.6    0.00 
 120   11:40   0.26   58.7    29    5.4   298    13.2   850.4    0.00 
 120   11:50   0.29   59.6    26    3.8   306     9.3   850.3    0.00 
 120   12:00   0.36   59.9    30    7.0   292    11.2   850.1    0.00 
 120   12:10   0.39   60.8    28    4.7   288     9.6   850.0    0.00 
 120   12:20   0.44   61.6    29   10.0   281    17.5   849.8    0.00 
 120   12:30   0.66   62.6    27   10.1   276    16.4   849.8    0.00 
 120   12:40   0.86   64.3    25    7.5   264    16.5   849.8    0.00 
 120   12:50   0.57   64.3    26    7.0   266    16.0   849.7    0.00 
 120   13:00   0.52   62.7    25    4.9   293    10.1   849.7    0.00 
 120   13:10   0.66   63.3    27    8.3   298    15.5   849.6    0.00 
 120   13:20   0.95   63.9    29   12.2   289    18.9   849.5    0.00 
 120   13:30   0.96   64.8    25    9.5   270    16.5   849.5    0.00 
 120   13:40   0.87   65.2    26   10.7   281    19.1   849.2    0.00 
 120   13:50   0.66   64.5    26   10.0   279    17.2   849.1    0.00 
 120   14:00   0.70   63.7    29   10.8   278    18.6   848.9    0.00 
 120   14:10   0.91   64.2    27   13.0   284    20.8   848.7    0.00 
 120   14:20   0.90   64.9    26   12.5   269    21.5   848.7    0.00 
 120   14:30   0.83   64.8    25   12.8   258    18.9   848.6    0.00 
 120   14:40   0.40   63.2    27   13.4   276    20.8   848.5    0.00 
 120   14:50   0.69   62.3    28   13.9   279    21.8   848.5    0.00 
 120   15:00   0.38   62.1    29   14.7   281    21.2   848.3    0.00 
 120   15:10   0.23   59.5    32   14.9   276    23.2   848.2    0.00 
 120   15:20   0.40   59.7    34   12.4   288    21.4   848.0    0.00 
 120   15:30   0.23   59.2    32   13.4   282    22.4   848.0    0.00 
 120   15:40   0.54   60.0    31   16.1   272    23.2   847.8    0.00 
 120   15:50   0.42   60.9    30   16.4   273    27.0   847.7    0.00 
 120   16:00   0.35   58.9    31   17.6   259    27.0   847.6    0.00 
 120   16:10   0.47   59.7    32   13.4   273    21.0   847.5    0.00 
 120   16:20   0.47   60.6    31   15.8   273    23.2   847.5    0.00 
 120   16:30   0.44   59.6    31   19.3   265    28.0   847.4    0.00 
 120   16:40   0.40   59.3    32   16.7   269    27.2   847.3    0.00 
 120   16:50   0.36   58.8    30   19.3   273    29.5   847.3    0.00 
 120   17:00   0.20   57.6    32   15.6   278    22.2   847.4    0.00 
 120   17:10   0.30   57.8    32   14.9   275    24.3   847.5    0.00 
 120   17:20   0.25   57.5    30   15.6   274    24.3   847.6    0.00 
 120   17:30   0.14   56.5    32   14.4   274    22.0   847.8    0.00 
 120   17:40   0.11   55.2    34   11.0   278    20.8   847.8    0.00 
 120   17:50   0.08   55.0    35    7.4   291    11.0   848.2    0.00 
 120   18:00   0.07   53.7    42   11.6   348    19.1   848.5    0.00 
 120   18:10   0.05   50.3    57   14.9    29    24.1   848.7    0.00 
 120   18:20   0.02   48.7    61   15.1    31    22.9   849.0    0.00 
 120   18:30   0.01   47.9    63   16.6    26    29.5   849.5    0.00 
 120   18:40   0.01   46.4    68   16.6    24    24.2   849.7    0.00 
 120   18:50   0.00   46.1    69   17.3    16    24.8   850.0    0.00 
 120   19:00   0.00   45.7    69   15.5     8    23.5   850.3    0.00 
 120   19:10   0.00   45.7    70   16.2     4    25.3   850.6    0.00 
 120   19:20   0.00   45.2    72   13.7     8    21.2   850.7    0.00 
 120   19:30   0.00   43.9    78   17.0   358    26.0   851.0    0.00 
 120   19:40   0.00   41.8    84   17.5   350    24.0   851.4    0.01 
 120   19:50   0.00   40.8    88   13.5   350    18.4   851.6    0.01 
 120   20:00   0.00   40.8    87   13.3   353    17.8   851.8    0.03 
 120   20:10   0.00   40.9    88   10.0   351    14.9   851.9    0.02 
 120   20:20   0.00   41.5    85    9.1   345    15.1   852.0    0.02 
 120   20:30   0.00   41.6    86    4.8   321     7.9   851.8    0.00 
 120   20:40   0.00   41.5    86    5.4   238     8.0   851.5    0.00 
 120   20:50   0.00   41.7    85    4.3   235     8.2   851.5    0.00 
 120   21:00   0.00   41.7    84    6.3   231     9.7   851.4    0.00 
 120   21:10   0.00   42.9    74    3.6   315    11.3   851.5    0.00 
 120   21:20   0.00   44.4    70    4.9   342     8.8   851.5    0.00 
 120   21:30   0.00   44.1    73    6.5   357    11.3   851.5    0.00 
 120   21:40   0.00   43.7    76   11.6    14    24.7   851.8    0.01 
 120   21:50   0.00   41.2    88   13.1    22    22.4   852.2    0.01 
 120   22:00   0.00   40.2    91   11.2   357    15.5   852.4    0.04 
 120   22:10   0.00   39.7    91    8.8   337    13.2   852.4    0.02 
 120   22:20   0.00   39.7    89   11.2   342    17.2   852.6    0.03 
 120   22:30   0.00   39.2    87    9.3   344    15.9   852.6    0.00 
 120   22:40   0.00   39.3    86    5.6   298    10.2   852.4    0.00 
 120   22:50   0.00   39.2    88    1.6   355     3.2   852.5    0.01 
 120   23:00   0.00   39.4    88    0.9   122     2.0   852.5    0.00 
 120   23:10   0.00   39.2    89    2.3   118     3.4   852.3    0.00 
 120   23:20   0.00   39.1    89    1.9   142     3.5   852.3    0.00 
 120   23:30   0.00   39.3    90    2.6   163     3.6   852.3    0.00 
 120   23:40   0.00   39.7    89    2.8   186     3.7   852.4    0.00 
 120   23:50   0.00   39.9    89    2.5   169     3.5   852.4    0.00 
 121    0:00   0.00   39.7    90    5.2   185     8.2   852.4    0.00 
 121    0:10   0.00   39.1    91    4.8   178     7.2   852.6    0.00 
 121    0:20   0.00   38.6    89    4.5   159     6.6   852.6    0.00 
 121    0:30   0.00   38.6    90    4.4   171     6.1   852.5    0.00 
 121    0:40   0.00   38.6    91    3.8   167     5.9   852.4    0.00 
 121    0:50   0.00   38.6    92    3.6   165     6.1   852.4    0.00 
 121    1:00   0.00   38.7    92    2.3   169     3.4   852.4    0.00 
 121    1:10   0.00   38.7    92    3.8   140     5.7   852.4    0.00 
 121    1:20   0.00   38.8    92    2.8   156     5.0   852.6    0.00 
 121    1:30   0.00   39.2    91    2.1   188     3.9   852.6    0.00 
 121    1:40   0.00   39.6    89    1.7   153     4.3   852.5    0.00 
 121    1:50   0.00   39.6    92    0.9   128     2.0   852.5    0.00 
 121    2:00   0.00   39.4    92    1.2   171     1.9   852.6    0.00 
 121    2:10   0.00   39.3    93    1.7   129     3.1   852.6    0.00 
 121    2:20   0.00   39.2    93    1.7   135     3.4   852.6    0.00 
 121    2:30   0.00   39.1    92    2.2   149     3.7   852.6    0.00 
 121    2:40   0.00   39.0    92    2.6   152     3.9   852.6    0.00 
 121    2:50   0.00   39.0    93    2.6   139     4.3   852.7    0.00 
 121    3:00   0.00   38.9    92    2.5   151     5.6   852.7    0.00 
 121    3:10   0.00   39.0    92    1.6   176     3.3   852.8    0.00 
 121    3:20   0.00   39.1    92    3.3   198     5.3   852.9    0.00 
 121    3:30   0.00   39.1    91    3.2   103     7.0   853.0    0.00 
 121    3:40   0.00   39.3    83    2.7    56     4.2   853.0    0.00 
 121    3:50   0.00   39.2    87    1.3   110     2.8   853.0    0.01 
 121    4:00   0.00   39.3    86    0.3    68     2.0   853.0    0.00 
 121    4:10   0.00   39.4    87    0.6   351     2.0   852.9    0.00 
 121    4:20   0.00   39.5    90    1.8   236     3.1   852.9    0.00 
 121    4:30   0.00   39.5    90    2.3   216     3.3   852.9    0.00 
 121    4:40   0.00   39.5    90    1.6   224     2.9   852.9    0.00 
 121    4:50   0.00   39.3    88    2.4   265     5.0   852.9    0.00 
 121    5:00   0.00   39.5    86    3.6   336     6.2   852.9    0.00 
 121    5:10   0.01   39.5    85    3.9     9     6.0   853.0    0.00 
 121    5:20   0.01   39.5    83    7.3     9    12.1   853.0    0.00 
 121    5:30   0.01   39.1    85    6.9    18    10.7   853.1    0.00 
 121    5:40   0.01   38.8    86    7.1    17    10.6   853.2    0.01 
 121    5:50   0.01   38.6    86    4.0    10     7.6   853.3    0.00 
 121    6:00   0.01   38.6    89    2.3   328     3.4   853.5    0.00 
 121    6:10   0.02   38.8    90    2.6   310     3.5   853.5    0.00 
 121    6:20   0.02   38.9    91    4.5   288     6.9   853.6    0.00 
 121    6:30   0.04   38.7    92    3.7   287     5.3   853.7    0.00 
 121    6:40   0.04   38.8    92    2.1   296     3.2   853.9    0.00 
 121    6:50   0.04   38.9    92    2.4   286     3.9   853.9    0.00 
 121    7:00   0.04   39.2    93    1.0   284     2.4   854.0    0.00 
 121    7:10   0.04   39.6    89    1.9   294     3.0   854.1    0.00 
 121    7:20   0.04   40.2    84    3.5   314     6.6   854.1    0.00 
 121    7:30   0.05   40.6    82    4.5   325     5.9   854.2    0.00 
 121    7:40   0.08   41.0    82    5.0   332     6.9   854.3    0.00 
 121    7:50   0.06   41.4    80    3.9   346     5.9   854.4    0.00 
 121    8:00   0.05   41.4    79    3.6     3     6.4   854.5    0.00 
 121    8:10   0.05   41.4    79    3.1     0     4.9   854.6    0.00 
 121    8:20   0.05   41.5    79    3.5    11     5.7   854.6    0.00 
 121    8:30   0.06   41.6    81    3.3    20     6.1   854.6    0.00 
 121    8:40   0.05   41.7    80    2.7   353     4.1   854.6    0.00 
 121    8:50   0.06   41.9    80    3.2   348     5.8   854.5    0.00 
 121    9:00   0.07   42.1    80    4.0     1     6.6   854.5    0.00 
 121    9:10   0.10   42.4    79    4.2    23     7.6   854.5    0.00 
 121    9:20   0.15   42.7    77    5.7    31     9.0   854.5    0.00 
 121    9:30   0.23   43.2    75    5.8    22     9.3   854.5    0.00 
 121    9:40   0.31   43.8    73    6.0    19     9.6   854.5    0.00 
 121    9:50   0.41   44.7    73    5.5     5    10.6   854.3    0.00 
 121   10:00   0.44   45.2    71    6.4    22    11.2   854.3    0.00 
 121   10:10   0.50   46.0    71    7.1    25    10.7   854.2    0.00 
 121   10:20   0.69   46.9    70    8.4    38    13.4   854.1    0.00 
 121   10:30   0.45   47.1    69    8.3    31    13.9   854.1    0.00 
 121   10:40   0.76   47.8    69    9.3    31    14.8   854.1    0.00 

Return to Smith Valley graphs page.


Western Regional Climate Center,wrcc@dri.edu